sensor_id;sensor_type;location;lat;lon;timestamp;P1;durP1;ratioP1;P2;durP2;ratioP2
67751;SDS011;54551;51.068;5.826;2023-05-07T00:00:05;6.27;;;5.70;;
67751;SDS011;54551;51.068;5.826;2023-05-07T00:02:33;7.13;;;6.37;;
67751;SDS011;54551;51.068;5.826;2023-05-07T00:05:00;6.10;;;5.60;;
67751;SDS011;54551;51.068;5.826;2023-05-07T00:07:27;7.00;;;6.30;;
67751;SDS011;54551;51.068;5.826;2023-05-07T00:09:53;6.50;;;6.00;;
67751;SDS011;54551;51.068;5.826;2023-05-07T00:12:19;6.13;;;5.60;;
67751;SDS011;54551;51.068;5.826;2023-05-07T00:14:45;6.33;;;5.73;;
67751;SDS011;54551;51.068;5.826;2023-05-07T00:17:11;6.37;;;5.73;;
67751;SDS011;54551;51.068;5.826;2023-05-07T00:19:37;5.80;;;5.30;;
67751;SDS011;54551;51.068;5.826;2023-05-07T00:22:03;6.37;;;5.87;;
67751;SDS011;54551;51.068;5.826;2023-05-07T00:24:29;6.60;;;5.97;;
67751;SDS011;54551;51.068;5.826;2023-05-07T00:26:55;6.20;;;5.70;;
67751;SDS011;54551;51.068;5.826;2023-05-07T00:29:23;6.20;;;5.23;;
67751;SDS011;54551;51.068;5.826;2023-05-07T00:31:49;5.80;;;5.27;;
67751;SDS011;54551;51.068;5.826;2023-05-07T00:34:15;6.63;;;5.50;;
67751;SDS011;54551;51.068;5.826;2023-05-07T00:36:41;6.33;;;5.70;;
67751;SDS011;54551;51.068;5.826;2023-05-07T00:39:07;6.80;;;6.20;;
67751;SDS011;54551;51.068;5.826;2023-05-07T00:41:33;6.43;;;5.83;;
67751;SDS011;54551;51.068;5.826;2023-05-07T00:43:59;7.30;;;6.13;;
67751;SDS011;54551;51.068;5.826;2023-05-07T00:46:27;6.90;;;6.30;;
67751;SDS011;54551;51.068;5.826;2023-05-07T00:48:56;6.10;;;5.60;;
67751;SDS011;54551;51.068;5.826;2023-05-07T00:51:23;6.80;;;6.10;;
67751;SDS011;54551;51.068;5.826;2023-05-07T00:53:54;7.03;;;6.37;;
67751;SDS011;54551;51.068;5.826;2023-05-07T00:56:21;6.87;;;6.27;;
67751;SDS011;54551;51.068;5.826;2023-05-07T00:58:48;8.20;;;7.43;;
67751;SDS011;54551;51.068;5.826;2023-05-07T01:01:14;8.07;;;7.33;;
67751;SDS011;54551;51.068;5.826;2023-05-07T01:03:42;8.60;;;7.80;;
67751;SDS011;54551;51.068;5.826;2023-05-07T01:06:08;9.27;;;8.37;;
67751;SDS011;54551;51.068;5.826;2023-05-07T01:08:38;9.23;;;8.37;;
67751;SDS011;54551;51.068;5.826;2023-05-07T01:11:06;9.50;;;7.97;;
67751;SDS011;54551;51.068;5.826;2023-05-07T01:13:33;9.33;;;8.43;;
67751;SDS011;54551;51.068;5.826;2023-05-07T01:16:01;12.80;;;8.97;;
67751;SDS011;54551;51.068;5.826;2023-05-07T01:18:28;9.83;;;8.67;;
67751;SDS011;54551;51.068;5.826;2023-05-07T01:20:56;10.60;;;8.90;;
67751;SDS011;54551;51.068;5.826;2023-05-07T01:23:24;10.27;;;9.27;;
67751;SDS011;54551;51.068;5.826;2023-05-07T01:25:52;11.80;;;9.73;;
67751;SDS011;54551;51.068;5.826;2023-05-07T01:28:19;9.93;;;8.93;;
67751;SDS011;54551;51.068;5.826;2023-05-07T01:30:47;10.77;;;9.67;;
67751;SDS011;54551;51.068;5.826;2023-05-07T01:33:19;9.43;;;8.53;;
67751;SDS011;54551;51.068;5.826;2023-05-07T01:35:48;10.63;;;9.70;;
67751;SDS011;54551;51.068;5.826;2023-05-07T01:38:17;13.13;;;10.00;;
67751;SDS011;54551;51.068;5.826;2023-05-07T01:40:44;10.87;;;9.77;;
67751;SDS011;54551;51.068;5.826;2023-05-07T01:43:11;12.30;;;9.83;;
67751;SDS011;54551;51.068;5.826;2023-05-07T01:45:38;13.13;;;11.03;;
67751;SDS011;54551;51.068;5.826;2023-05-07T01:48:06;11.20;;;10.10;;
67751;SDS011;54551;51.068;5.826;2023-05-07T01:50:33;11.77;;;9.80;;
67751;SDS011;54551;51.068;5.826;2023-05-07T01:53:00;11.60;;;10.53;;
67751;SDS011;54551;51.068;5.826;2023-05-07T01:55:28;11.73;;;10.07;;
67751;SDS011;54551;51.068;5.826;2023-05-07T01:57:54;11.97;;;10.83;;
67751;SDS011;54551;51.068;5.826;2023-05-07T02:00:20;11.77;;;9.97;;
67751;SDS011;54551;51.068;5.826;2023-05-07T02:02:46;13.00;;;11.57;;
67751;SDS011;54551;51.068;5.826;2023-05-07T02:05:27;14.97;;;12.67;;
67751;SDS011;54551;51.068;5.826;2023-05-07T02:07:59;12.73;;;11.43;;
67751;SDS011;54551;51.068;5.826;2023-05-07T02:10:27;13.13;;;11.83;;
67751;SDS011;54551;51.068;5.826;2023-05-07T02:12:52;13.00;;;11.83;;
67751;SDS011;54551;51.068;5.826;2023-05-07T02:15:18;12.60;;;11.50;;
67751;SDS011;54551;51.068;5.826;2023-05-07T02:20:32;13.50;;;11.30;;
67751;SDS011;54551;51.068;5.826;2023-05-07T02:22:58;12.53;;;10.80;;
67751;SDS011;54551;51.068;5.826;2023-05-07T02:25:26;11.90;;;10.83;;
67751;SDS011;54551;51.068;5.826;2023-05-07T02:27:52;11.23;;;10.00;;
67751;SDS011;54551;51.068;5.826;2023-05-07T02:30:21;11.63;;;10.57;;
67751;SDS011;54551;51.068;5.826;2023-05-07T02:32:50;12.13;;;10.90;;
67751;SDS011;54551;51.068;5.826;2023-05-07T02:35:16;11.77;;;10.63;;
67751;SDS011;54551;51.068;5.826;2023-05-07T02:37:43;12.23;;;10.90;;
67751;SDS011;54551;51.068;5.826;2023-05-07T02:40:09;12.77;;;11.57;;
67751;SDS011;54551;51.068;5.826;2023-05-07T02:42:35;11.63;;;10.60;;
67751;SDS011;54551;51.068;5.826;2023-05-07T02:45:01;11.63;;;10.57;;
67751;SDS011;54551;51.068;5.826;2023-05-07T02:47:29;11.03;;;10.03;;
67751;SDS011;54551;51.068;5.826;2023-05-07T02:49:56;11.87;;;10.70;;
67751;SDS011;54551;51.068;5.826;2023-05-07T02:52:22;12.20;;;10.93;;
67751;SDS011;54551;51.068;5.826;2023-05-07T02:54:48;12.00;;;10.83;;
67751;SDS011;54551;51.068;5.826;2023-05-07T02:57:14;11.00;;;10.00;;
67751;SDS011;54551;51.068;5.826;2023-05-07T02:59:41;12.93;;;11.53;;
67751;SDS011;54551;51.068;5.826;2023-05-07T03:02:07;13.07;;;11.90;;
67751;SDS011;54551;51.068;5.826;2023-05-07T03:04:33;12.97;;;11.73;;
67751;SDS011;54551;51.068;5.826;2023-05-07T03:06:59;13.57;;;12.00;;
67751;SDS011;54551;51.068;5.826;2023-05-07T03:09:25;13.97;;;12.67;;
67751;SDS011;54551;51.068;5.826;2023-05-07T03:11:51;11.43;;;10.33;;
67751;SDS011;54551;51.068;5.826;2023-05-07T03:14:17;10.50;;;9.60;;
67751;SDS011;54551;51.068;5.826;2023-05-07T03:16:43;11.03;;;9.73;;
67751;SDS011;54551;51.068;5.826;2023-05-07T03:19:09;12.57;;;11.50;;
67751;SDS011;54551;51.068;5.826;2023-05-07T03:21:35;15.47;;;13.10;;
67751;SDS011;54551;51.068;5.826;2023-05-07T03:24:00;15.43;;;13.73;;
67751;SDS011;54551;51.068;5.826;2023-05-07T03:26:26;16.43;;;14.80;;
67751;SDS011;54551;51.068;5.826;2023-05-07T03:28:52;17.93;;;16.00;;
67751;SDS011;54551;51.068;5.826;2023-05-07T03:31:20;17.20;;;15.60;;
67751;SDS011;54551;51.068;5.826;2023-05-07T03:33:50;15.37;;;13.87;;
67751;SDS011;54551;51.068;5.826;2023-05-07T03:36:23;15.30;;;14.00;;
67751;SDS011;54551;51.068;5.826;2023-05-07T03:38:49;14.60;;;13.20;;
67751;SDS011;54551;51.068;5.826;2023-05-07T03:41:19;14.60;;;13.20;;
67751;SDS011;54551;51.068;5.826;2023-05-07T03:43:45;14.37;;;13.13;;
67751;SDS011;54551;51.068;5.826;2023-05-07T03:46:12;15.50;;;14.00;;
67751;SDS011;54551;51.068;5.826;2023-05-07T03:48:38;16.03;;;14.33;;
67751;SDS011;54551;51.068;5.826;2023-05-07T03:51:05;15.80;;;14.30;;
67751;SDS011;54551;51.068;5.826;2023-05-07T03:53:32;13.70;;;12.40;;
67751;SDS011;54551;51.068;5.826;2023-05-07T03:55:58;13.13;;;12.00;;
67751;SDS011;54551;51.068;5.826;2023-05-07T03:58:24;13.67;;;12.47;;
67751;SDS011;54551;51.068;5.826;2023-05-07T04:00:52;14.53;;;13.00;;
67751;SDS011;54551;51.068;5.826;2023-05-07T04:03:25;14.43;;;13.03;;
67751;SDS011;54551;51.068;5.826;2023-05-07T04:05:52;13.37;;;12.03;;
67751;SDS011;54551;51.068;5.826;2023-05-07T04:08:18;12.57;;;11.17;;
67751;SDS011;54551;51.068;5.826;2023-05-07T04:10:47;13.17;;;11.87;;
67751;SDS011;54551;51.068;5.826;2023-05-07T04:13:13;13.67;;;12.37;;
67751;SDS011;54551;51.068;5.826;2023-05-07T04:15:39;12.77;;;11.67;;
67751;SDS011;54551;51.068;5.826;2023-05-07T04:18:09;12.90;;;11.20;;
67751;SDS011;54551;51.068;5.826;2023-05-07T04:20:36;13.03;;;11.77;;
67751;SDS011;54551;51.068;5.826;2023-05-07T04:23:04;14.30;;;12.87;;
67751;SDS011;54551;51.068;5.826;2023-05-07T04:25:31;14.13;;;12.30;;
67751;SDS011;54551;51.068;5.826;2023-05-07T04:28:06;12.93;;;11.63;;
67751;SDS011;54551;51.068;5.826;2023-05-07T04:30:32;12.50;;;11.37;;
67751;SDS011;54551;51.068;5.826;2023-05-07T04:32:58;12.80;;;11.40;;
67751;SDS011;54551;51.068;5.826;2023-05-07T04:35:26;12.07;;;10.97;;
67751;SDS011;54551;51.068;5.826;2023-05-07T04:37:52;12.40;;;11.13;;
67751;SDS011;54551;51.068;5.826;2023-05-07T04:40:18;12.27;;;11.17;;
67751;SDS011;54551;51.068;5.826;2023-05-07T04:42:45;12.80;;;11.47;;
67751;SDS011;54551;51.068;5.826;2023-05-07T04:45:12;12.40;;;11.30;;
67751;SDS011;54551;51.068;5.826;2023-05-07T04:47:42;12.50;;;11.17;;
67751;SDS011;54551;51.068;5.826;2023-05-07T04:50:08;11.10;;;10.00;;
67751;SDS011;54551;51.068;5.826;2023-05-07T04:52:35;10.77;;;9.73;;
67751;SDS011;54551;51.068;5.826;2023-05-07T04:55:02;11.83;;;9.90;;
67751;SDS011;54551;51.068;5.826;2023-05-07T04:57:33;11.10;;;9.87;;
67751;SDS011;54551;51.068;5.826;2023-05-07T04:59:59;10.37;;;9.47;;
67751;SDS011;54551;51.068;5.826;2023-05-07T05:02:25;11.77;;;10.43;;
67751;SDS011;54551;51.068;5.826;2023-05-07T05:04:51;11.23;;;10.13;;
67751;SDS011;54551;51.068;5.826;2023-05-07T05:07:17;13.47;;;11.30;;
67751;SDS011;54551;51.068;5.826;2023-05-07T05:09:43;11.70;;;10.50;;
67751;SDS011;54551;51.068;5.826;2023-05-07T05:12:10;11.07;;;9.97;;
67751;SDS011;54551;51.068;5.826;2023-05-07T05:14:37;13.07;;;10.10;;
67751;SDS011;54551;51.068;5.826;2023-05-07T05:17:03;11.87;;;10.67;;
67751;SDS011;54551;51.068;5.826;2023-05-07T05:19:29;11.10;;;10.10;;
67751;SDS011;54551;51.068;5.826;2023-05-07T05:21:55;11.47;;;10.37;;
67751;SDS011;54551;51.068;5.826;2023-05-07T05:24:21;11.00;;;10.00;;
67751;SDS011;54551;51.068;5.826;2023-05-07T05:26:47;11.07;;;10.03;;
67751;SDS011;54551;51.068;5.826;2023-05-07T05:29:13;12.50;;;10.77;;
67751;SDS011;54551;51.068;5.826;2023-05-07T05:31:41;10.73;;;9.87;;
67751;SDS011;54551;51.068;5.826;2023-05-07T05:34:07;10.53;;;9.53;;
67751;SDS011;54551;51.068;5.826;2023-05-07T05:36:34;8.97;;;8.07;;
67751;SDS011;54551;51.068;5.826;2023-05-07T05:39:00;9.03;;;8.23;;
67751;SDS011;54551;51.068;5.826;2023-05-07T05:41:27;8.77;;;7.97;;
67751;SDS011;54551;51.068;5.826;2023-05-07T05:43:53;8.43;;;7.50;;
67751;SDS011;54551;51.068;5.826;2023-05-07T05:46:19;8.50;;;7.70;;
67751;SDS011;54551;51.068;5.826;2023-05-07T05:48:46;10.23;;;8.53;;
67751;SDS011;54551;51.068;5.826;2023-05-07T05:51:12;9.27;;;8.10;;
67751;SDS011;54551;51.068;5.826;2023-05-07T05:53:38;8.67;;;7.97;;
67751;SDS011;54551;51.068;5.826;2023-05-07T05:56:05;10.00;;;9.10;;
67751;SDS011;54551;51.068;5.826;2023-05-07T05:58:32;8.70;;;7.90;;
67751;SDS011;54551;51.068;5.826;2023-05-07T06:01:01;9.47;;;7.70;;
67751;SDS011;54551;51.068;5.826;2023-05-07T06:03:29;9.50;;;8.60;;
67751;SDS011;54551;51.068;5.826;2023-05-07T06:05:57;10.23;;;7.50;;
67751;SDS011;54551;51.068;5.826;2023-05-07T06:08:23;8.43;;;7.63;;
67751;SDS011;54551;51.068;5.826;2023-05-07T06:10:49;9.40;;;7.93;;
67751;SDS011;54551;51.068;5.826;2023-05-07T06:13:15;8.50;;;7.60;;
67751;SDS011;54551;51.068;5.826;2023-05-07T06:15:41;10.33;;;7.23;;
67751;SDS011;54551;51.068;5.826;2023-05-07T06:18:10;8.57;;;6.60;;
67751;SDS011;54551;51.068;5.826;2023-05-07T06:20:36;6.70;;;5.27;;
67751;SDS011;54551;51.068;5.826;2023-05-07T06:23:05;5.87;;;5.00;;
67751;SDS011;54551;51.068;5.826;2023-05-07T06:25:32;6.27;;;5.00;;
67751;SDS011;54551;51.068;5.826;2023-05-07T06:27:58;5.90;;;5.30;;
67751;SDS011;54551;51.068;5.826;2023-05-07T06:30:25;4.80;;;4.37;;
67751;SDS011;54551;51.068;5.826;2023-05-07T06:32:53;4.97;;;4.47;;
67751;SDS011;54551;51.068;5.826;2023-05-07T06:35:19;4.70;;;4.30;;
67751;SDS011;54551;51.068;5.826;2023-05-07T06:37:45;4.90;;;4.40;;
67751;SDS011;54551;51.068;5.826;2023-05-07T06:40:19;5.60;;;5.00;;
67751;SDS011;54551;51.068;5.826;2023-05-07T06:42:46;4.93;;;4.37;;
67751;SDS011;54551;51.068;5.826;2023-05-07T06:45:22;7.47;;;4.47;;
67751;SDS011;54551;51.068;5.826;2023-05-07T06:47:49;4.73;;;4.33;;
67751;SDS011;54551;51.068;5.826;2023-05-07T06:50:15;8.43;;;4.70;;
67751;SDS011;54551;51.068;5.826;2023-05-07T06:52:43;7.30;;;3.93;;
67751;SDS011;54551;51.068;5.826;2023-05-07T06:55:09;5.13;;;3.90;;
67751;SDS011;54551;51.068;5.826;2023-05-07T06:57:37;4.60;;;3.90;;
67751;SDS011;54551;51.068;5.826;2023-05-07T07:00:04;5.87;;;4.07;;
67751;SDS011;54551;51.068;5.826;2023-05-07T07:02:40;5.93;;;3.80;;
67751;SDS011;54551;51.068;5.826;2023-05-07T07:05:08;4.47;;;4.07;;
67751;SDS011;54551;51.068;5.826;2023-05-07T07:07:34;4.33;;;3.40;;
67751;SDS011;54551;51.068;5.826;2023-05-07T07:10:00;4.07;;;3.30;;
67751;SDS011;54551;51.068;5.826;2023-05-07T07:12:28;4.10;;;3.27;;
67751;SDS011;54551;51.068;5.826;2023-05-07T07:14:55;4.13;;;3.17;;
67751;SDS011;54551;51.068;5.826;2023-05-07T07:17:21;4.30;;;3.03;;
67751;SDS011;54551;51.068;5.826;2023-05-07T07:19:47;4.37;;;3.27;;
67751;SDS011;54551;51.068;5.826;2023-05-07T07:22:14;4.47;;;3.40;;
67751;SDS011;54551;51.068;5.826;2023-05-07T07:24:40;3.10;;;2.83;;
67751;SDS011;54551;51.068;5.826;2023-05-07T07:27:08;4.30;;;2.87;;
67751;SDS011;54551;51.068;5.826;2023-05-07T07:29:35;8.60;;;3.27;;
67751;SDS011;54551;51.068;5.826;2023-05-07T07:32:01;3.87;;;2.93;;
67751;SDS011;54551;51.068;5.826;2023-05-07T07:34:27;2.97;;;2.67;;
67751;SDS011;54551;51.068;5.826;2023-05-07T07:36:53;3.33;;;3.03;;
67751;SDS011;54551;51.068;5.826;2023-05-07T07:39:20;4.27;;;2.63;;
67751;SDS011;54551;51.068;5.826;2023-05-07T07:41:49;5.27;;;3.10;;
67751;SDS011;54551;51.068;5.826;2023-05-07T07:44:16;3.70;;;3.00;;
67751;SDS011;54551;51.068;5.826;2023-05-07T07:46:48;4.20;;;2.60;;
67751;SDS011;54551;51.068;5.826;2023-05-07T07:49:14;4.13;;;2.40;;
67751;SDS011;54551;51.068;5.826;2023-05-07T07:51:41;3.27;;;2.50;;
67751;SDS011;54551;51.068;5.826;2023-05-07T07:54:08;4.07;;;2.80;;
67751;SDS011;54551;51.068;5.826;2023-05-07T07:56:35;2.70;;;2.43;;
67751;SDS011;54551;51.068;5.826;2023-05-07T07:59:03;3.30;;;2.50;;
67751;SDS011;54551;51.068;5.826;2023-05-07T08:01:30;4.33;;;2.70;;
67751;SDS011;54551;51.068;5.826;2023-05-07T08:03:57;3.70;;;2.47;;
67751;SDS011;54551;51.068;5.826;2023-05-07T08:06:26;2.87;;;1.90;;
67751;SDS011;54551;51.068;5.826;2023-05-07T08:08:52;6.13;;;2.50;;
67751;SDS011;54551;51.068;5.826;2023-05-07T08:11:19;2.60;;;2.23;;
67751;SDS011;54551;51.068;5.826;2023-05-07T08:13:45;3.58;;;2.38;;
67751;SDS011;54551;51.068;5.826;2023-05-07T08:16:11;2.58;;;2.28;;
67751;SDS011;54551;51.068;5.826;2023-05-07T08:18:37;2.50;;;2.30;;
67751;SDS011;54551;51.068;5.826;2023-05-07T08:21:03;2.28;;;1.90;;
67751;SDS011;54551;51.068;5.826;2023-05-07T08:23:30;2.88;;;2.17;;
67751;SDS011;54551;51.068;5.826;2023-05-07T08:25:57;2.60;;;2.10;;
67751;SDS011;54551;51.068;5.826;2023-05-07T08:28:23;2.42;;;2.22;;
67751;SDS011;54551;51.068;5.826;2023-05-07T08:30:50;2.92;;;2.03;;
67751;SDS011;54551;51.068;5.826;2023-05-07T08:33:16;3.15;;;2.47;;
67751;SDS011;54551;51.068;5.826;2023-05-07T08:35:42;4.60;;;2.30;;
67751;SDS011;54551;51.068;5.826;2023-05-07T08:38:10;4.60;;;2.97;;
67751;SDS011;54551;51.068;5.826;2023-05-07T08:40:37;4.45;;;2.60;;
67751;SDS011;54551;51.068;5.826;2023-05-07T08:43:07;4.70;;;2.40;;
67751;SDS011;54551;51.068;5.826;2023-05-07T08:45:36;2.38;;;2.17;;
67751;SDS011;54551;51.068;5.826;2023-05-07T08:48:14;3.25;;;2.40;;
67751;SDS011;54551;51.068;5.826;2023-05-07T08:50:43;7.45;;;2.78;;
67751;SDS011;54551;51.068;5.826;2023-05-07T08:53:10;3.85;;;2.50;;
67751;SDS011;54551;51.068;5.826;2023-05-07T08:55:36;2.53;;;2.33;;
67751;SDS011;54551;51.068;5.826;2023-05-07T08:58:02;3.80;;;2.83;;
67751;SDS011;54551;51.068;5.826;2023-05-07T09:00:30;4.05;;;2.67;;
67751;SDS011;54551;51.068;5.826;2023-05-07T09:02:58;3.17;;;2.47;;
67751;SDS011;54551;51.068;5.826;2023-05-07T09:05:25;2.72;;;2.30;;
67751;SDS011;54551;51.068;5.826;2023-05-07T09:07:51;2.92;;;2.63;;
67751;SDS011;54551;51.068;5.826;2023-05-07T09:10:19;3.20;;;2.90;;
67751;SDS011;54551;51.068;5.826;2023-05-07T09:12:47;3.05;;;2.72;;
67751;SDS011;54551;51.068;5.826;2023-05-07T09:15:14;3.90;;;3.42;;
67751;SDS011;54551;51.068;5.826;2023-05-07T09:17:40;3.78;;;3.47;;
67751;SDS011;54551;51.068;5.826;2023-05-07T09:20:07;3.90;;;3.50;;
67751;SDS011;54551;51.068;5.826;2023-05-07T09:22:35;3.67;;;3.28;;
67751;SDS011;54551;51.068;5.826;2023-05-07T09:25:06;3.70;;;3.25;;
67751;SDS011;54551;51.068;5.826;2023-05-07T09:27:35;3.92;;;3.05;;
67751;SDS011;54551;51.068;5.826;2023-05-07T09:30:08;3.15;;;2.85;;
67751;SDS011;54551;51.068;5.826;2023-05-07T09:32:36;3.37;;;3.07;;
67751;SDS011;54551;51.068;5.826;2023-05-07T09:35:14;4.47;;;3.30;;
67751;SDS011;54551;51.068;5.826;2023-05-07T09:37:42;2.80;;;2.60;;
67751;SDS011;54551;51.068;5.826;2023-05-07T09:40:19;3.05;;;2.50;;
67751;SDS011;54551;51.068;5.826;2023-05-07T09:42:51;2.87;;;2.67;;
67751;SDS011;54551;51.068;5.826;2023-05-07T09:45:36;2.83;;;2.63;;
67751;SDS011;54551;51.068;5.826;2023-05-07T09:48:04;3.13;;;2.78;;
67751;SDS011;54551;51.068;5.826;2023-05-07T09:50:32;3.13;;;2.83;;
67751;SDS011;54551;51.068;5.826;2023-05-07T09:53:03;3.25;;;2.90;;
67751;SDS011;54551;51.068;5.826;2023-05-07T09:55:30;3.00;;;2.70;;
67751;SDS011;54551;51.068;5.826;2023-05-07T09:57:56;2.58;;;2.22;;
67751;SDS011;54551;51.068;5.826;2023-05-07T10:00:26;3.28;;;2.47;;
67751;SDS011;54551;51.068;5.826;2023-05-07T10:03:01;5.28;;;2.58;;
67751;SDS011;54551;51.068;5.826;2023-05-07T10:05:40;4.15;;;2.45;;
67751;SDS011;54551;51.068;5.826;2023-05-07T10:08:10;3.47;;;2.70;;
67751;SDS011;54551;51.068;5.826;2023-05-07T10:10:38;2.88;;;2.30;;
67751;SDS011;54551;51.068;5.826;2023-05-07T10:13:08;4.30;;;2.67;;
67751;SDS011;54551;51.068;5.826;2023-05-07T10:15:38;2.30;;;2.10;;
67751;SDS011;54551;51.068;5.826;2023-05-07T10:18:04;5.65;;;2.70;;
67751;SDS011;54551;51.068;5.826;2023-05-07T10:20:34;3.03;;;2.83;;
67751;SDS011;54551;51.068;5.826;2023-05-07T10:23:05;3.10;;;2.80;;
67751;SDS011;54551;51.068;5.826;2023-05-07T10:25:39;2.65;;;2.45;;
67751;SDS011;54551;51.068;5.826;2023-05-07T10:28:13;3.80;;;2.42;;
67751;SDS011;54551;51.068;5.826;2023-05-07T10:33:40;4.60;;;2.95;;
67751;SDS011;54551;51.068;5.826;2023-05-07T10:36:08;4.88;;;2.90;;
67751;SDS011;54551;51.068;5.826;2023-05-07T10:38:35;3.20;;;2.53;;
67751;SDS011;54551;51.068;5.826;2023-05-07T10:41:01;4.70;;;3.78;;
67751;SDS011;54551;51.068;5.826;2023-05-07T10:43:41;4.07;;;3.50;;
67751;SDS011;54551;51.068;5.826;2023-05-07T10:46:16;3.92;;;3.63;;
67751;SDS011;54551;51.068;5.826;2023-05-07T10:49:09;3.08;;;2.78;;
67751;SDS011;54551;51.068;5.826;2023-05-07T10:51:44;3.03;;;2.72;;
67751;SDS011;54551;51.068;5.826;2023-05-07T10:54:24;4.53;;;3.20;;
67751;SDS011;54551;51.068;5.826;2023-05-07T10:57:32;4.38;;;3.03;;
67751;SDS011;54551;51.068;5.826;2023-05-07T10:59:53;3.73;;;3.00;;
67751;SDS011;54551;51.068;5.826;2023-05-07T11:05:28;2.50;;;2.30;;
67751;SDS011;54551;51.068;5.826;2023-05-07T11:08:12;3.00;;;2.30;;
67751;SDS011;54551;51.068;5.826;2023-05-07T11:10:59;2.17;;;1.80;;
67751;SDS011;54551;51.068;5.826;2023-05-07T11:13:48;2.43;;;2.00;;
67751;SDS011;54551;51.068;5.826;2023-05-07T11:16:23;2.10;;;1.90;;
67751;SDS011;54551;51.068;5.826;2023-05-07T11:18:58;3.13;;;1.90;;
67751;SDS011;54551;51.068;5.826;2023-05-07T11:21:37;2.93;;;1.77;;
67751;SDS011;54551;51.068;5.826;2023-05-07T11:24:26;1.87;;;1.50;;
67751;SDS011;54551;51.068;5.826;2023-05-07T11:26:56;2.93;;;1.90;;
67751;SDS011;54551;51.068;5.826;2023-05-07T11:29:25;3.83;;;2.07;;
67751;SDS011;54551;51.068;5.826;2023-05-07T11:32:13;4.87;;;2.00;;
67751;SDS011;54551;51.068;5.826;2023-05-07T11:34:53;5.57;;;1.83;;
67751;SDS011;54551;51.068;5.826;2023-05-07T11:37:21;3.30;;;1.77;;
67751;SDS011;54551;51.068;5.826;2023-05-07T11:40:02;2.07;;;1.77;;
67751;SDS011;54551;51.068;5.826;2023-05-07T11:42:31;2.97;;;1.70;;
67751;SDS011;54551;51.068;5.826;2023-05-07T11:44:59;2.37;;;1.90;;
67751;SDS011;54551;51.068;5.826;2023-05-07T11:47:25;4.17;;;2.90;;
67751;SDS011;54551;51.068;5.826;2023-05-07T11:49:54;2.30;;;2.10;;
67751;SDS011;54551;51.068;5.826;2023-05-07T11:52:21;2.40;;;1.80;;
67751;SDS011;54551;51.068;5.826;2023-05-07T11:54:51;4.20;;;1.93;;
67751;SDS011;54551;51.068;5.826;2023-05-07T11:57:18;3.20;;;2.00;;
67751;SDS011;54551;51.068;5.826;2023-05-07T11:59:45;4.97;;;2.10;;
67751;SDS011;54551;51.068;5.826;2023-05-07T12:02:16;3.93;;;1.93;;
67751;SDS011;54551;51.068;5.826;2023-05-07T12:04:43;5.60;;;1.90;;
67751;SDS011;54551;51.068;5.826;2023-05-07T12:07:12;5.03;;;2.20;;
67751;SDS011;54551;51.068;5.826;2023-05-07T12:09:42;4.00;;;2.17;;
67751;SDS011;54551;51.068;5.826;2023-05-07T12:12:09;4.00;;;2.63;;
67751;SDS011;54551;51.068;5.826;2023-05-07T12:14:39;2.27;;;1.87;;
67751;SDS011;54551;51.068;5.826;2023-05-07T12:17:06;3.77;;;2.00;;
67751;SDS011;54551;51.068;5.826;2023-05-07T12:19:34;3.00;;;2.10;;
67751;SDS011;54551;51.068;5.826;2023-05-07T12:22:01;3.17;;;2.37;;
67751;SDS011;54551;51.068;5.826;2023-05-07T12:24:28;4.87;;;2.67;;
67751;SDS011;54551;51.068;5.826;2023-05-07T12:27:06;3.27;;;2.73;;
67751;SDS011;54551;51.068;5.826;2023-05-07T12:29:32;2.63;;;2.40;;
67751;SDS011;54551;51.068;5.826;2023-05-07T12:31:58;3.23;;;2.70;;
67751;SDS011;54551;51.068;5.826;2023-05-07T12:34:24;6.43;;;3.70;;
67751;SDS011;54551;51.068;5.826;2023-05-07T12:36:50;4.10;;;3.20;;
67751;SDS011;54551;51.068;5.826;2023-05-07T12:39:16;3.57;;;2.80;;
67751;SDS011;54551;51.068;5.826;2023-05-07T12:41:55;4.20;;;2.20;;
67751;SDS011;54551;51.068;5.826;2023-05-07T12:44:25;4.47;;;2.60;;
67751;SDS011;54551;51.068;5.826;2023-05-07T12:46:55;3.33;;;2.43;;
67751;SDS011;54551;51.068;5.826;2023-05-07T12:49:21;5.03;;;2.60;;
67751;SDS011;54551;51.068;5.826;2023-05-07T12:51:48;5.00;;;2.17;;
67751;SDS011;54551;51.068;5.826;2023-05-07T12:54:28;3.20;;;2.37;;
67751;SDS011;54551;51.068;5.826;2023-05-07T12:57:09;3.37;;;2.10;;
67751;SDS011;54551;51.068;5.826;2023-05-07T12:59:39;1.90;;;1.80;;
67751;SDS011;54551;51.068;5.826;2023-05-07T13:02:06;2.30;;;1.70;;
67751;SDS011;54551;51.068;5.826;2023-05-07T13:04:35;2.90;;;1.50;;
67751;SDS011;54551;51.068;5.826;2023-05-07T13:07:01;2.20;;;1.50;;
67751;SDS011;54551;51.068;5.826;2023-05-07T13:09:27;2.88;;;1.90;;
67751;SDS011;54551;51.068;5.826;2023-05-07T13:11:54;2.17;;;1.70;;
67751;SDS011;54551;51.068;5.826;2023-05-07T13:14:20;1.93;;;1.60;;
67751;SDS011;54551;51.068;5.826;2023-05-07T13:16:46;1.90;;;1.40;;
67751;SDS011;54551;51.068;5.826;2023-05-07T13:19:13;1.23;;;1.10;;
67751;SDS011;54551;51.068;5.826;2023-05-07T13:21:39;2.10;;;1.30;;
67751;SDS011;54551;51.068;5.826;2023-05-07T13:24:05;1.50;;;1.40;;
67751;SDS011;54551;51.068;5.826;2023-05-07T13:26:31;2.57;;;1.23;;
67751;SDS011;54551;51.068;5.826;2023-05-07T13:28:57;3.05;;;1.60;;
67751;SDS011;54551;51.068;5.826;2023-05-07T13:31:24;2.58;;;1.70;;
67751;SDS011;54551;51.068;5.826;2023-05-07T13:33:50;3.00;;;1.80;;
67751;SDS011;54551;51.068;5.826;2023-05-07T13:36:17;2.33;;;1.83;;
67751;SDS011;54551;51.068;5.826;2023-05-07T13:38:43;2.53;;;1.97;;
67751;SDS011;54551;51.068;5.826;2023-05-07T13:41:09;2.22;;;1.48;;
67751;SDS011;54551;51.068;5.826;2023-05-07T13:43:35;3.20;;;1.55;;
67751;SDS011;54551;51.068;5.826;2023-05-07T13:46:01;2.97;;;1.73;;
67751;SDS011;54551;51.068;5.826;2023-05-07T13:48:27;2.60;;;1.75;;
67751;SDS011;54551;51.068;5.826;2023-05-07T13:50:53;1.98;;;1.58;;
67751;SDS011;54551;51.068;5.826;2023-05-07T13:53:19;1.98;;;1.50;;
67751;SDS011;54551;51.068;5.826;2023-05-07T13:55:45;2.15;;;1.20;;
67751;SDS011;54551;51.068;5.826;2023-05-07T13:58:11;1.90;;;1.50;;
67751;SDS011;54551;51.068;5.826;2023-05-07T14:00:37;1.93;;;1.73;;
67751;SDS011;54551;51.068;5.826;2023-05-07T14:03:04;1.67;;;1.50;;
67751;SDS011;54551;51.068;5.826;2023-05-07T14:05:30;3.53;;;1.77;;
67751;SDS011;54551;51.068;5.826;2023-05-07T14:07:57;2.40;;;1.60;;
67751;SDS011;54551;51.068;5.826;2023-05-07T14:10:23;1.83;;;1.67;;
67751;SDS011;54551;51.068;5.826;2023-05-07T14:12:49;2.40;;;1.70;;
67751;SDS011;54551;51.068;5.826;2023-05-07T14:15:15;1.93;;;1.67;;
67751;SDS011;54551;51.068;5.826;2023-05-07T14:17:42;3.13;;;1.63;;
67751;SDS011;54551;51.068;5.826;2023-05-07T14:20:08;2.50;;;2.13;;
67751;SDS011;54551;51.068;5.826;2023-05-07T14:22:35;4.20;;;2.37;;
67751;SDS011;54551;51.068;5.826;2023-05-07T14:25:02;2.90;;;2.27;;
67751;SDS011;54551;51.068;5.826;2023-05-07T14:27:28;3.10;;;2.37;;
67751;SDS011;54551;51.068;5.826;2023-05-07T14:29:54;5.40;;;2.30;;
67751;SDS011;54551;51.068;5.826;2023-05-07T14:32:20;3.90;;;2.47;;
67751;SDS011;54551;51.068;5.826;2023-05-07T14:34:47;2.77;;;2.10;;
67751;SDS011;54551;51.068;5.826;2023-05-07T14:37:13;2.47;;;1.77;;
67751;SDS011;54551;51.068;5.826;2023-05-07T14:39:39;2.00;;;1.40;;
67751;SDS011;54551;51.068;5.826;2023-05-07T14:42:05;3.10;;;1.47;;
67751;SDS011;54551;51.068;5.826;2023-05-07T14:44:36;2.13;;;1.53;;
67751;SDS011;54551;51.068;5.826;2023-05-07T14:47:02;2.73;;;2.20;;
67751;SDS011;54551;51.068;5.826;2023-05-07T14:49:28;2.50;;;2.10;;
67751;SDS011;54551;51.068;5.826;2023-05-07T14:51:56;3.00;;;2.00;;
67751;SDS011;54551;51.068;5.826;2023-05-07T14:54:24;3.13;;;2.80;;